sensor_id;sensor_type;location;lat;lon;timestamp;pressure;altitude;pressure_sealevel;temperature;humidity
29371;BME280;16357;52.188;7.838;2023-08-21T00:00:28;101564.03;;;22.71;47.64
29371;BME280;16357;52.188;7.838;2023-08-21T00:02:54;101554.56;;;22.67;48.06
29371;BME280;16357;52.188;7.838;2023-08-21T00:05:21;101555.84;;;22.64;48.73
29371;BME280;16357;52.188;7.838;2023-08-21T00:07:47;101549.13;;;22.60;48.73
29371;BME280;16357;52.188;7.838;2023-08-21T00:10:17;101555.03;;;22.57;48.70
29371;BME280;16357;52.188;7.838;2023-08-21T00:12:43;101551.03;;;22.53;48.44
29371;BME280;16357;52.188;7.838;2023-08-21T00:15:10;101557.16;;;22.48;48.72
29371;BME280;16357;52.188;7.838;2023-08-21T00:17:36;101558.22;;;22.41;48.89
29371;BME280;16357;52.188;7.838;2023-08-21T00:20:03;101554.69;;;22.33;49.16
29371;BME280;16357;52.188;7.838;2023-08-21T00:22:29;101555.97;;;22.24;49.30
29371;BME280;16357;52.188;7.838;2023-08-21T00:24:56;101558.91;;;22.16;49.01
29371;BME280;16357;52.188;7.838;2023-08-21T00:27:22;101557.03;;;22.10;49.60
29371;BME280;16357;52.188;7.838;2023-08-21T00:29:48;101558.91;;;22.03;49.93
29371;BME280;16357;52.188;7.838;2023-08-21T00:32:15;101563.16;;;21.99;50.13
29371;BME280;16357;52.188;7.838;2023-08-21T00:34:42;101562.94;;;21.94;50.17
29371;BME280;16357;52.188;7.838;2023-08-21T00:37:09;101560.59;;;21.90;50.48
29371;BME280;16357;52.188;7.838;2023-08-21T00:39:36;101562.09;;;21.86;50.60
29371;BME280;16357;52.188;7.838;2023-08-21T00:42:02;101566.09;;;21.84;51.00
29371;BME280;16357;52.188;7.838;2023-08-21T00:44:28;101560.81;;;21.82;50.29
29371;BME280;16357;52.188;7.838;2023-08-21T00:46:55;101569.25;;;21.81;51.04
29371;BME280;16357;52.188;7.838;2023-08-21T00:49:21;101561.25;;;21.79;50.89
29371;BME280;16357;52.188;7.838;2023-08-21T00:51:50;101564.81;;;21.80;50.98
29371;BME280;16357;52.188;7.838;2023-08-21T00:54:19;101566.94;;;21.78;51.14
29371;BME280;16357;52.188;7.838;2023-08-21T00:56:45;101565.25;;;21.77;51.30
29371;BME280;16357;52.188;7.838;2023-08-21T00:59:14;101568.19;;;21.75;51.07
29371;BME280;16357;52.188;7.838;2023-08-21T01:01:41;101575.75;;;21.73;51.16
29371;BME280;16357;52.188;7.838;2023-08-21T01:04:07;101574.28;;;21.70;51.58
29371;BME280;16357;52.188;7.838;2023-08-21T01:06:34;101572.81;;;21.68;51.15
29371;BME280;16357;52.188;7.838;2023-08-21T01:09:10;101573.25;;;21.65;51.25
29371;BME280;16357;52.188;7.838;2023-08-21T01:11:54;101573.66;;;21.62;51.30
29371;BME280;16357;52.188;7.838;2023-08-21T01:14:43;101577.84;;;21.58;50.82
29371;BME280;16357;52.188;7.838;2023-08-21T01:17:12;101582.66;;;21.56;52.02
29371;BME280;16357;52.188;7.838;2023-08-21T01:19:42;101574.91;;;21.53;51.77
29371;BME280;16357;52.188;7.838;2023-08-21T01:22:09;101574.06;;;21.52;51.88
29371;BME280;16357;52.188;7.838;2023-08-21T01:24:36;101566.91;;;21.51;52.09
29371;BME280;16357;52.188;7.838;2023-08-21T01:27:03;101570.69;;;21.50;51.97
29371;BME280;16357;52.188;7.838;2023-08-21T01:29:29;101575.31;;;21.50;52.08
29371;BME280;16357;52.188;7.838;2023-08-21T01:34:32;101576.38;;;21.48;52.05
29371;BME280;16357;52.188;7.838;2023-08-21T01:37:00;101573.66;;;21.48;52.11
29371;BME280;16357;52.188;7.838;2023-08-21T01:39:27;101581.63;;;21.50;52.15
29371;BME280;16357;52.188;7.838;2023-08-21T01:41:55;101572.78;;;21.48;52.40
29371;BME280;16357;52.188;7.838;2023-08-21T01:44:22;101575.31;;;21.50;52.47
29371;BME280;16357;52.188;7.838;2023-08-21T01:46:48;101570.94;;;21.48;52.25
29371;BME280;16357;52.188;7.838;2023-08-21T01:49:15;101574.91;;;21.46;52.34
29371;BME280;16357;52.188;7.838;2023-08-21T01:51:41;101568.59;;;21.45;52.35
29371;BME280;16357;52.188;7.838;2023-08-21T01:54:08;101569.00;;;21.42;52.47
29371;BME280;16357;52.188;7.838;2023-08-21T01:56:34;101569.44;;;21.39;52.14
29371;BME280;16357;52.188;7.838;2023-08-21T01:59:04;101571.72;;;21.36;52.50
29371;BME280;16357;52.188;7.838;2023-08-21T02:01:31;101564.13;;;21.31;52.88
29371;BME280;16357;52.188;7.838;2023-08-21T02:03:57;101561.81;;;21.28;53.04
29371;BME280;16357;52.188;7.838;2023-08-21T02:06:24;101562.25;;;21.25;53.35
29371;BME280;16357;52.188;7.838;2023-08-21T02:08:50;101557.81;;;21.24;53.73
29371;BME280;16357;52.188;7.838;2023-08-21T02:11:17;101558.88;;;21.23;53.65
29371;BME280;16357;52.188;7.838;2023-08-21T02:13:43;101558.88;;;21.23;53.59
29371;BME280;16357;52.188;7.838;2023-08-21T02:16:09;101551.72;;;21.22;53.60
29371;BME280;16357;52.188;7.838;2023-08-21T02:18:36;101557.19;;;21.22;53.49
29371;BME280;16357;52.188;7.838;2023-08-21T02:21:02;101562.03;;;21.20;53.67
29371;BME280;16357;52.188;7.838;2023-08-21T02:23:29;101557.81;;;21.17;53.55
29371;BME280;16357;52.188;7.838;2023-08-21T02:25:56;101560.94;;;21.14;53.60
29371;BME280;16357;52.188;7.838;2023-08-21T02:28:22;101566.63;;;21.13;53.80
29371;BME280;16357;52.188;7.838;2023-08-21T02:30:48;101559.69;;;21.10;53.78
29371;BME280;16357;52.188;7.838;2023-08-21T02:33:15;101557.38;;;21.07;53.76
29371;BME280;16357;52.188;7.838;2023-08-21T02:35:41;101555.06;;;21.04;54.24
29371;BME280;16357;52.188;7.838;2023-08-21T02:38:08;101557.97;;;21.02;54.02
29371;BME280;16357;52.188;7.838;2023-08-21T02:40:34;101556.31;;;21.01;54.06
29371;BME280;16357;52.188;7.838;2023-08-21T02:43:01;101556.91;;;20.97;53.86
29371;BME280;16357;52.188;7.838;2023-08-21T02:45:27;101565.53;;;20.94;54.05
29371;BME280;16357;52.188;7.838;2023-08-21T02:47:53;101568.03;;;20.89;54.38
29371;BME280;16357;52.188;7.838;2023-08-21T02:50:20;101568.81;;;20.82;54.57
29371;BME280;16357;52.188;7.838;2023-08-21T02:52:46;101568.81;;;20.76;54.52
29371;BME280;16357;52.188;7.838;2023-08-21T02:55:13;101564.38;;;20.68;54.81
29371;BME280;16357;52.188;7.838;2023-08-21T02:57:40;101567.91;;;20.62;55.64
29371;BME280;16357;52.188;7.838;2023-08-21T03:00:07;101560.34;;;20.57;55.20
29371;BME280;16357;52.188;7.838;2023-08-21T03:02:34;101567.03;;;20.55;55.65
29371;BME280;16357;52.188;7.838;2023-08-21T03:05:01;101564.31;;;20.55;55.91
29371;BME280;16357;52.188;7.838;2023-08-21T03:07:27;101563.25;;;20.56;55.56
29371;BME280;16357;52.188;7.838;2023-08-21T03:09:54;101563.06;;;20.57;55.76
29371;BME280;16357;52.188;7.838;2023-08-21T03:12:20;101558.25;;;20.59;56.24
29371;BME280;16357;52.188;7.838;2023-08-21T03:14:47;101550.50;;;20.63;56.02
29371;BME280;16357;52.188;7.838;2023-08-21T03:17:13;101557.44;;;20.66;56.29
29371;BME280;16357;52.188;7.838;2023-08-21T03:19:39;101550.91;;;20.67;55.74
29371;BME280;16357;52.188;7.838;2023-08-21T03:22:06;101551.56;;;20.69;55.87
29371;BME280;16357;52.188;7.838;2023-08-21T03:24:32;101550.31;;;20.71;55.73
29371;BME280;16357;52.188;7.838;2023-08-21T03:26:59;101551.16;;;20.72;55.84
29371;BME280;16357;52.188;7.838;2023-08-21T03:29:25;101555.59;;;20.73;56.00
29371;BME280;16357;52.188;7.838;2023-08-21T03:31:53;101556.22;;;20.75;55.76
29371;BME280;16357;52.188;7.838;2023-08-21T03:34:20;101561.69;;;20.75;55.78
29371;BME280;16357;52.188;7.838;2023-08-21T03:36:47;101562.28;;;20.77;55.72
29371;BME280;16357;52.188;7.838;2023-08-21T03:39:13;101561.28;;;20.78;55.59
29371;BME280;16357;52.188;7.838;2023-08-21T03:41:40;101557.72;;;20.77;55.79
29371;BME280;16357;52.188;7.838;2023-08-21T03:44:06;101562.28;;;20.77;55.95
29371;BME280;16357;52.188;7.838;2023-08-21T03:46:33;101559.56;;;20.77;55.85
29371;BME280;16357;52.188;7.838;2023-08-21T03:48:59;101560.63;;;20.76;55.96
29371;BME280;16357;52.188;7.838;2023-08-21T03:51:26;101560.63;;;20.76;56.03
29371;BME280;16357;52.188;7.838;2023-08-21T03:53:52;101559.56;;;20.77;56.42
29371;BME280;16357;52.188;7.838;2023-08-21T03:56:18;101565.03;;;20.77;56.50
29371;BME280;16357;52.188;7.838;2023-08-21T03:58:45;101570.28;;;20.78;56.69
29371;BME280;16357;52.188;7.838;2023-08-21T04:01:12;101567.34;;;20.80;56.36
29371;BME280;16357;52.188;7.838;2023-08-21T04:03:38;101561.69;;;20.81;56.54
29371;BME280;16357;52.188;7.838;2023-08-21T04:06:04;101558.78;;;20.83;56.59
29371;BME280;16357;52.188;7.838;2023-08-21T04:08:31;101559.59;;;20.83;56.66
29371;BME280;16357;52.188;7.838;2023-08-21T04:10:58;101564.22;;;20.83;56.46
29371;BME280;16357;52.188;7.838;2023-08-21T04:13:26;101560.44;;;20.84;57.28
29371;BME280;16357;52.188;7.838;2023-08-21T04:15:54;101567.56;;;20.85;56.42
29371;BME280;16357;52.188;7.838;2023-08-21T04:18:20;101567.56;;;20.85;56.65
29371;BME280;16357;52.188;7.838;2023-08-21T04:21:06;101572.19;;;20.85;56.42
29371;BME280;16357;52.188;7.838;2023-08-21T04:23:32;101581.44;;;20.83;56.06
29371;BME280;16357;52.188;7.838;2023-08-21T04:26:03;101571.53;;;20.82;56.29
29371;BME280;16357;52.188;7.838;2023-08-21T04:28:31;101562.09;;;20.78;56.51
29371;BME280;16357;52.188;7.838;2023-08-21T04:30:58;101568.81;;;20.76;56.95
29371;BME280;16357;52.188;7.838;2023-08-21T04:33:27;101571.94;;;20.73;57.03
29371;BME280;16357;52.188;7.838;2023-08-21T04:35:53;101574.03;;;20.71;56.97
29371;BME280;16357;52.188;7.838;2023-08-21T04:38:20;101574.44;;;20.68;56.76
29371;BME280;16357;52.188;7.838;2023-08-21T04:40:47;101566.84;;;20.63;57.14
29371;BME280;16357;52.188;7.838;2023-08-21T04:43:13;101569.78;;;20.61;57.08
29371;BME280;16357;52.188;7.838;2023-08-21T04:45:50;101576.50;;;20.59;56.89
29371;BME280;16357;52.188;7.838;2023-08-21T04:48:17;101567.03;;;20.55;57.02
29371;BME280;16357;52.188;7.838;2023-08-21T04:50:43;101573.53;;;20.54;57.44
29371;BME280;16357;52.188;7.838;2023-08-21T04:53:09;101579.16;;;20.52;57.71
29371;BME280;16357;52.188;7.838;2023-08-21T04:55:36;101572.03;;;20.51;57.78
29371;BME280;16357;52.188;7.838;2023-08-21T04:58:03;101572.84;;;20.52;57.84
29371;BME280;16357;52.188;7.838;2023-08-21T05:00:30;101581.03;;;20.52;57.71
29371;BME280;16357;52.188;7.838;2023-08-21T05:02:56;101575.38;;;20.53;57.90
29371;BME280;16357;52.188;7.838;2023-08-21T05:05:23;101574.53;;;20.53;58.09
29371;BME280;16357;52.188;7.838;2023-08-21T05:07:49;101575.38;;;20.53;58.13
29371;BME280;16357;52.188;7.838;2023-08-21T05:10:15;101580.66;;;20.55;58.15
29371;BME280;16357;52.188;7.838;2023-08-21T05:12:42;101579.59;;;20.56;58.02
29371;BME280;16357;52.188;7.838;2023-08-21T05:15:09;101582.16;;;20.57;58.13
29371;BME280;16357;52.188;7.838;2023-08-21T05:17:35;101582.97;;;20.58;58.61
29371;BME280;16357;52.188;7.838;2023-08-21T05:20:02;101576.50;;;20.59;58.25
29371;BME280;16357;52.188;7.838;2023-08-21T05:22:29;101570.81;;;20.60;58.31
29371;BME280;16357;52.188;7.838;2023-08-21T05:24:55;101585.09;;;20.63;58.18
29371;BME280;16357;52.188;7.838;2023-08-21T05:27:22;101590.97;;;20.66;58.19
29371;BME280;16357;52.188;7.838;2023-08-21T05:29:48;101585.13;;;20.69;58.30
29371;BME280;16357;52.188;7.838;2023-08-21T05:32:17;101588.94;;;20.75;58.16
29371;BME280;16357;52.188;7.838;2023-08-21T05:34:43;101587.47;;;20.79;58.56
29371;BME280;16357;52.188;7.838;2023-08-21T05:37:10;101594.84;;;20.85;58.61
29371;BME280;16357;52.188;7.838;2023-08-21T05:39:37;101600.16;;;20.93;58.46
29371;BME280;16357;52.188;7.838;2023-08-21T05:42:04;101595.13;;;21.03;58.86
29371;BME280;16357;52.188;7.838;2023-08-21T05:44:30;101597.69;;;21.12;59.04
29371;BME280;16357;52.188;7.838;2023-08-21T05:46:57;101600.00;;;21.21;58.57
29371;BME280;16357;52.188;7.838;2023-08-21T05:49:23;101594.16;;;21.31;57.82
29371;BME280;16357;52.188;7.838;2023-08-21T05:51:50;101597.56;;;21.40;56.60
29371;BME280;16357;52.188;7.838;2023-08-21T05:54:16;101603.28;;;21.52;56.53
29371;BME280;16357;52.188;7.838;2023-08-21T05:56:42;101610.00;;;21.62;56.24
29371;BME280;16357;52.188;7.838;2023-08-21T05:59:10;101610.22;;;21.74;55.95
29371;BME280;16357;52.188;7.838;2023-08-21T06:01:37;101617.81;;;21.85;55.87
29371;BME280;16357;52.188;7.838;2023-08-21T06:04:04;101609.78;;;21.97;55.54
29371;BME280;16357;52.188;7.838;2023-08-21T06:06:31;101610.22;;;22.07;55.35
29371;BME280;16357;52.188;7.838;2023-08-21T06:08:57;101616.09;;;22.18;54.94
29371;BME280;16357;52.188;7.838;2023-08-21T06:11:24;101621.13;;;22.27;54.90
29371;BME280;16357;52.188;7.838;2023-08-21T06:13:50;101619.88;;;22.37;54.67
29371;BME280;16357;52.188;7.838;2023-08-21T06:16:16;101624.06;;;22.46;55.29
29371;BME280;16357;52.188;7.838;2023-08-21T06:18:43;101621.13;;;22.54;54.81
29371;BME280;16357;52.188;7.838;2023-08-21T06:21:10;101626.13;;;22.64;55.91
29371;BME280;16357;52.188;7.838;2023-08-21T06:23:36;101627.34;;;22.74;55.72
29371;BME280;16357;52.188;7.838;2023-08-21T06:26:03;101631.09;;;22.87;54.27
29371;BME280;16357;52.188;7.838;2023-08-21T06:28:29;101629.41;;;22.99;53.97
29371;BME280;16357;52.188;7.838;2023-08-21T06:30:56;101624.06;;;23.11;53.19
29371;BME280;16357;52.188;7.838;2023-08-21T06:33:24;101624.25;;;23.22;52.63
29371;BME280;16357;52.188;7.838;2023-08-21T06:35:50;101626.28;;;23.34;51.99
29371;BME280;16357;52.188;7.838;2023-08-21T06:38:17;101627.69;;;23.43;51.07
29371;BME280;16357;52.188;7.838;2023-08-21T06:40:45;101630.16;;;23.51;51.26
29371;BME280;16357;52.188;7.838;2023-08-21T06:43:12;101626.09;;;23.60;50.97
29371;BME280;16357;52.188;7.838;2023-08-21T06:45:38;101624.16;;;23.67;51.20
29371;BME280;16357;52.188;7.838;2023-08-21T06:48:05;101619.72;;;23.73;50.39
29371;BME280;16357;52.188;7.838;2023-08-21T06:50:31;101620.28;;;23.82;50.50
29371;BME280;16357;52.188;7.838;2023-08-21T06:52:58;101625.09;;;23.86;50.43
29371;BME280;16357;52.188;7.838;2023-08-21T06:55:24;101624.00;;;23.94;50.44
29371;BME280;16357;52.188;7.838;2023-08-21T06:57:51;101626.44;;;24.02;50.18
29371;BME280;16357;52.188;7.838;2023-08-21T07:00:17;101625.53;;;24.08;49.79
29371;BME280;16357;52.188;7.838;2023-08-21T07:02:43;101630.16;;;24.15;48.96
29371;BME280;16357;52.188;7.838;2023-08-21T07:05:10;101624.81;;;24.20;49.19
29371;BME280;16357;52.188;7.838;2023-08-21T07:07:38;101622.22;;;24.25;49.12
29371;BME280;16357;52.188;7.838;2023-08-21T07:10:05;101617.97;;;24.29;48.81
29371;BME280;16357;52.188;7.838;2023-08-21T07:12:31;101617.06;;;24.35;48.45
29371;BME280;16357;52.188;7.838;2023-08-21T07:14:58;101621.66;;;24.41;48.54
29371;BME280;16357;52.188;7.838;2023-08-21T07:17:24;101620.75;;;24.47;48.36
29371;BME280;16357;52.188;7.838;2023-08-21T07:19:51;101622.59;;;24.53;47.78
29371;BME280;16357;52.188;7.838;2023-08-21T07:22:19;101628.22;;;24.59;48.00
29371;BME280;16357;52.188;7.838;2023-08-21T07:24:46;101621.84;;;24.65;48.12
29371;BME280;16357;52.188;7.838;2023-08-21T07:27:14;101619.84;;;24.72;47.68
29371;BME280;16357;52.188;7.838;2023-08-21T07:29:40;101616.19;;;24.78;47.81
29371;BME280;16357;52.188;7.838;2023-08-21T07:32:06;101615.50;;;24.83;47.47
29371;BME280;16357;52.188;7.838;2023-08-21T07:34:33;101615.06;;;24.86;46.93
29371;BME280;16357;52.188;7.838;2023-08-21T07:36:59;101619.47;;;24.87;47.71
29371;BME280;16357;52.188;7.838;2023-08-21T07:39:26;101619.00;;;24.90;47.57
29371;BME280;16357;52.188;7.838;2023-08-21T07:41:52;101631.44;;;24.92;47.37
29371;BME280;16357;52.188;7.838;2023-08-21T07:44:19;101616.41;;;24.95;46.97
29371;BME280;16357;52.188;7.838;2023-08-21T07:46:45;101622.25;;;24.98;47.04
29371;BME280;16357;52.188;7.838;2023-08-21T07:49:12;101627.53;;;25.00;46.87
29371;BME280;16357;52.188;7.838;2023-08-21T07:51:38;101621.22;;;25.00;46.65
29371;BME280;16357;52.188;7.838;2023-08-21T07:54:05;101616.78;;;24.98;46.72
29371;BME280;16357;52.188;7.838;2023-08-21T07:56:31;101611.28;;;24.98;46.72
29371;BME280;16357;52.188;7.838;2023-08-21T07:58:58;101612.56;;;24.96;46.96
29371;BME280;16357;52.188;7.838;2023-08-21T08:01:24;101622.72;;;24.95;46.93
29371;BME280;16357;52.188;7.838;2023-08-21T08:03:51;101626.09;;;24.97;46.92
29371;BME280;16357;52.188;7.838;2023-08-21T08:06:17;101623.13;;;24.99;46.90
29371;BME280;16357;52.188;7.838;2023-08-21T08:08:44;101631.09;;;25.01;46.86
29371;BME280;16357;52.188;7.838;2023-08-21T08:11:12;101625.63;;;25.01;46.72
29371;BME280;16357;52.188;7.838;2023-08-21T08:13:38;101628.38;;;25.01;46.95
29371;BME280;16357;52.188;7.838;2023-08-21T08:16:04;101629.19;;;25.01;45.94
29371;BME280;16357;52.188;7.838;2023-08-21T08:18:31;101624.78;;;25.00;46.20
29371;BME280;16357;52.188;7.838;2023-08-21T08:20:57;101626.22;;;25.03;46.57
29371;BME280;16357;52.188;7.838;2023-08-21T08:23:24;101621.34;;;25.05;46.26
29371;BME280;16357;52.188;7.838;2023-08-21T08:25:50;101617.47;;;25.12;46.35
29371;BME280;16357;52.188;7.838;2023-08-21T08:28:17;101620.97;;;25.19;46.39
29371;BME280;16357;52.188;7.838;2023-08-21T08:30:45;101616.56;;;25.30;45.45
29371;BME280;16357;52.188;7.838;2023-08-21T08:33:11;101618.56;;;25.42;45.58
29371;BME280;16357;52.188;7.838;2023-08-21T08:35:38;101618.81;;;25.52;45.14
29371;BME280;16357;52.188;7.838;2023-08-21T08:38:06;101617.19;;;25.62;45.24
29371;BME280;16357;52.188;7.838;2023-08-21T08:40:33;101625.44;;;25.74;44.75
29371;BME280;16357;52.188;7.838;2023-08-21T08:43:01;101621.88;;;25.86;43.70
29371;BME280;16357;52.188;7.838;2023-08-21T08:45:29;101620.00;;;25.98;43.41
29371;BME280;16357;52.188;7.838;2023-08-21T08:47:59;101617.50;;;26.08;43.11
29371;BME280;16357;52.188;7.838;2023-08-21T08:50:31;101622.16;;;26.19;43.44
29371;BME280;16357;52.188;7.838;2023-08-21T08:52:59;101608.03;;;26.27;42.74
29371;BME280;16357;52.188;7.838;2023-08-21T08:55:41;101612.13;;;26.37;43.18
29371;BME280;16357;52.188;7.838;2023-08-21T08:58:07;101605.66;;;26.43;42.82
29371;BME280;16357;52.188;7.838;2023-08-21T09:00:34;101609.34;;;26.48;43.53
29371;BME280;16357;52.188;7.838;2023-08-21T09:03:00;101608.44;;;26.55;43.59
29371;BME280;16357;52.188;7.838;2023-08-21T09:05:27;101607.78;;;26.64;43.58
29371;BME280;16357;52.188;7.838;2023-08-21T09:08:09;101608.84;;;26.75;43.25
29371;BME280;16357;52.188;7.838;2023-08-21T09:10:37;101608.22;;;26.85;42.70
29371;BME280;16357;52.188;7.838;2023-08-21T09:13:15;101611.19;;;26.95;42.67
29371;BME280;16357;52.188;7.838;2023-08-21T09:15:47;101609.13;;;27.02;41.85
29371;BME280;16357;52.188;7.838;2023-08-21T09:18:15;101604.31;;;27.09;41.34
29371;BME280;16357;52.188;7.838;2023-08-21T09:20:42;101612.44;;;27.16;41.62
29371;BME280;16357;52.188;7.838;2023-08-21T09:23:13;101604.63;;;27.25;41.59
29371;BME280;16357;52.188;7.838;2023-08-21T09:25:40;101608.06;;;27.32;41.64
29371;BME280;16357;52.188;7.838;2023-08-21T09:28:07;101608.75;;;27.39;41.19
29371;BME280;16357;52.188;7.838;2023-08-21T09:30:48;101612.22;;;27.46;41.39
29371;BME280;16357;52.188;7.838;2023-08-21T09:33:17;101610.59;;;27.50;41.69
29371;BME280;16357;52.188;7.838;2023-08-21T09:35:44;101612.63;;;27.55;40.67
29371;BME280;16357;52.188;7.838;2023-08-21T09:38:11;101609.38;;;27.58;40.80
29371;BME280;16357;52.188;7.838;2023-08-21T09:40:42;101623.47;;;27.62;40.69
29371;BME280;16357;52.188;7.838;2023-08-21T09:43:10;101629.00;;;27.62;40.52
29371;BME280;16357;52.188;7.838;2023-08-21T09:45:39;101625.16;;;27.63;40.74
29371;BME280;16357;52.188;7.838;2023-08-21T09:48:06;101621.31;;;27.64;40.88
29371;BME280;16357;52.188;7.838;2023-08-21T09:50:34;101614.97;;;27.63;40.82
29371;BME280;16357;52.188;7.838;2023-08-21T09:53:01;101612.81;;;27.65;41.13
29371;BME280;16357;52.188;7.838;2023-08-21T09:55:29;101610.38;;;27.69;40.60
29371;BME280;16357;52.188;7.838;2023-08-21T09:57:59;101609.88;;;27.72;40.79
29371;BME280;16357;52.188;7.838;2023-08-21T10:00:34;101615.25;;;27.78;40.66
29371;BME280;16357;52.188;7.838;2023-08-21T10:03:08;101614.50;;;27.83;40.68
29371;BME280;16357;52.188;7.838;2023-08-21T10:05:38;101615.69;;;27.87;40.30
29371;BME280;16357;52.188;7.838;2023-08-21T10:08:06;101616.59;;;27.93;40.85
29371;BME280;16357;52.188;7.838;2023-08-21T10:10:36;101618.59;;;27.97;40.56
29371;BME280;16357;52.188;7.838;2023-08-21T10:13:04;101606.56;;;28.04;40.74
29371;BME280;16357;52.188;7.838;2023-08-21T10:15:32;101595.94;;;28.12;40.51
29371;BME280;16357;52.188;7.838;2023-08-21T10:18:20;101603.28;;;28.23;40.66
29371;BME280;16357;52.188;7.838;2023-08-21T10:20:47;101599.25;;;28.31;40.58
29371;BME280;16357;52.188;7.838;2023-08-21T10:23:32;101589.19;;;28.42;40.80
29371;BME280;16357;52.188;7.838;2023-08-21T10:26:06;101595.13;;;28.51;40.23
29371;BME280;16357;52.188;7.838;2023-08-21T10:31:27;101593.69;;;28.65;39.81
29371;BME280;16357;52.188;7.838;2023-08-21T10:33:54;101593.16;;;28.68;39.88
29371;BME280;16357;52.188;7.838;2023-08-21T10:39:23;101591.00;;;28.75;39.38
29371;BME280;16357;52.188;7.838;2023-08-21T10:42:21;101600.16;;;28.76;39.57
29371;BME280;16357;52.188;7.838;2023-08-21T10:45:10;101595.16;;;28.73;39.54
29371;BME280;16357;52.188;7.838;2023-08-21T10:47:37;101599.19;;;28.65;39.08
29371;BME280;16357;52.188;7.838;2023-08-21T10:50:06;101591.69;;;28.60;39.20
29371;BME280;16357;52.188;7.838;2023-08-21T10:55:05;101594.59;;;28.54;39.30
29371;BME280;16357;52.188;7.838;2023-08-21T10:57:33;101592.94;;;28.53;39.16
29371;BME280;16357;52.188;7.838;2023-08-21T11:00:03;101591.59;;;28.55;39.18
29371;BME280;16357;52.188;7.838;2023-08-21T11:02:31;101591.91;;;28.59;38.98
29371;BME280;16357;52.188;7.838;2023-08-21T11:05:00;101598.34;;;28.64;39.48
29371;BME280;16357;52.188;7.838;2023-08-21T11:07:27;101581.59;;;28.71;38.95
29371;BME280;16357;52.188;7.838;2023-08-21T11:09:54;101583.91;;;28.79;38.88
29371;BME280;16357;52.188;7.838;2023-08-21T11:12:22;101585.13;;;28.88;38.30
29371;BME280;16357;52.188;7.838;2023-08-21T11:14:49;101586.84;;;28.95;38.40
29371;BME280;16357;52.188;7.838;2023-08-21T11:17:16;101579.44;;;29.00;37.86
29371;BME280;16357;52.188;7.838;2023-08-21T11:19:44;101568.97;;;29.02;37.76
29371;BME280;16357;52.188;7.838;2023-08-21T11:22:11;101569.22;;;29.01;37.68
29371;BME280;16357;52.188;7.838;2023-08-21T11:24:39;101574.16;;;28.99;37.86
29371;BME280;16357;52.188;7.838;2023-08-21T11:27:11;101580.78;;;28.98;37.23
29371;BME280;16357;52.188;7.838;2023-08-21T11:29:46;101583.25;;;28.94;37.24
29371;BME280;16357;52.188;7.838;2023-08-21T11:32:15;101589.84;;;28.93;37.70
29371;BME280;16357;52.188;7.838;2023-08-21T11:34:46;101595.13;;;28.95;37.84
29371;BME280;16357;52.188;7.838;2023-08-21T11:37:13;101592.66;;;28.98;37.21
29371;BME280;16357;52.188;7.838;2023-08-21T11:39:45;101580.63;;;29.04;37.52
29371;BME280;16357;52.188;7.838;2023-08-21T11:42:12;101585.09;;;29.10;37.08
29371;BME280;16357;52.188;7.838;2023-08-21T11:44:50;101583.22;;;29.16;37.33
29371;BME280;16357;52.188;7.838;2023-08-21T11:47:19;101583.88;;;29.23;37.29
29371;BME280;16357;52.188;7.838;2023-08-21T11:49:46;101591.09;;;29.29;36.82
29371;BME280;16357;52.188;7.838;2023-08-21T11:52:20;101593.97;;;29.40;36.34
29371;BME280;16357;52.188;7.838;2023-08-21T11:54:52;101591.03;;;29.51;36.67
29371;BME280;16357;52.188;7.838;2023-08-21T11:57:19;101590.88;;;29.63;36.69
29371;BME280;16357;52.188;7.838;2023-08-21T11:59:53;101587.69;;;29.77;35.71
29371;BME280;16357;52.188;7.838;2023-08-21T12:02:25;101588.84;;;29.86;35.36
29371;BME280;16357;52.188;7.838;2023-08-21T12:05:02;101586.13;;;29.91;35.48
29371;BME280;16357;52.188;7.838;2023-08-21T12:07:29;101593.06;;;29.93;35.54
29371;BME280;16357;52.188;7.838;2023-08-21T12:09:56;101592.81;;;29.95;35.09
29371;BME280;16357;52.188;7.838;2023-08-21T12:12:23;101586.16;;;29.96;35.13
29371;BME280;16357;52.188;7.838;2023-08-21T12:14:49;101583.97;;;29.98;35.21
29371;BME280;16357;52.188;7.838;2023-08-21T12:17:16;101581.78;;;30.00;34.64
29371;BME280;16357;52.188;7.838;2023-08-21T12:19:42;101584.00;;;30.03;34.69
29371;BME280;16357;52.188;7.838;2023-08-21T12:22:09;101574.06;;;30.07;35.33
29371;BME280;16357;52.188;7.838;2023-08-21T12:24:36;101576.88;;;30.12;34.94
29371;BME280;16357;52.188;7.838;2023-08-21T12:27:06;101574.41;;;30.16;34.72
29371;BME280;16357;52.188;7.838;2023-08-21T12:29:32;101568.31;;;30.19;35.14
29371;BME280;16357;52.188;7.838;2023-08-21T12:31:59;101566.13;;;30.21;35.10
29371;BME280;16357;52.188;7.838;2023-08-21T12:34:25;101567.56;;;30.24;34.58
29371;BME280;16357;52.188;7.838;2023-08-21T12:36:52;101559.25;;;30.24;34.60
29371;BME280;16357;52.188;7.838;2023-08-21T12:39:18;101555.38;;;30.25;34.38
29371;BME280;16357;52.188;7.838;2023-08-21T12:41:46;101559.47;;;30.22;33.69
29371;BME280;16357;52.188;7.838;2023-08-21T12:44:12;101558.06;;;30.19;33.85
29371;BME280;16357;52.188;7.838;2023-08-21T12:46:38;101558.91;;;30.20;34.43
29371;BME280;16357;52.188;7.838;2023-08-21T12:49:05;101558.66;;;30.22;34.21
29371;BME280;16357;52.188;7.838;2023-08-21T12:51:31;101555.69;;;30.28;33.84
29371;BME280;16357;52.188;7.838;2023-08-21T12:53:58;101564.31;;;30.37;33.62
29371;BME280;16357;52.188;7.838;2023-08-21T12:56:24;101555.19;;;30.42;33.38
29371;BME280;16357;52.188;7.838;2023-08-21T12:58:51;101549.94;;;30.45;32.86
29371;BME280;16357;52.188;7.838;2023-08-21T13:01:17;101551.59;;;30.46;33.15
29371;BME280;16357;52.188;7.838;2023-08-21T13:03:45;101545.78;;;30.48;33.25